Time;durP1;ratioP1;P1;durP2;ratioP2;P2;SDS_P1;SDS_P2;PMS_P1;PMS_P2;Temp;Humidity;BMP_temperature;BMP_pressure;BME280_temperature;BME280_humidity;BME280_pressure;Samples;Min_cycle;Max_cycle;Signal;HPM_P1;HPM_P2
2021/06/18 04:58:16;;;;;;;4.65;1.87;;;;;;;27.01;39.83;100844.16;1822740;77;21890;-67
2021/06/18 05:00:44;;;;;;;4.60;1.70;;;;;;;26.99;39.89;100848.84;1812802;78;20998;-65
2021/06/18 05:03:11;;;;;;;1.85;1.70;;;;;;;27.05;39.67;100845.48;1809758;78;20980;-62
2021/06/18 05:05:38;;;;;;;5.10;1.75;;;;;;;27.07;39.93;100847.48;1806514;78;21028;-61
2021/06/18 05:08:06;;;;;;;1.90;1.80;;;;;;;27.20;40.46;100849.57;1809094;78;20874;-66
2021/06/18 05:10:33;;;;;;;2.15;1.95;;;;;;;27.52;39.45;100839.23;1797025;78;20942;-61
2021/06/18 05:13:00;;;;;;;1.77;1.60;;;;;;;27.79;39.00;100837.90;1805253;78;20946;-65
2021/06/18 05:15:28;;;;;;;4.50;2.40;;;;;;;27.80;38.41;100836.38;1812009;78;21138;-64
2021/06/18 05:17:57;;;;;;;4.72;1.95;;;;;;;27.79;38.68;100833.37;1793501;78;20886;-60
2021/06/18 05:20:24;;;;;;;2.83;1.57;;;;;;;27.82;38.71;100836.20;1802121;78;20994;-62
2021/06/18 05:22:51;;;;;;;3.62;1.92;;;;;;;27.95;38.37;100831.59;1735297;81;21541;-59
2021/06/18 05:25:19;;;;;;;3.55;2.00;;;;;;;28.03;38.70;100834.19;1729959;81;20986;-72
2021/06/18 05:27:46;;;;;;;2.75;1.80;;;;;;;28.20;38.30;100833.05;1736943;81;21059;-63
2021/06/18 05:30:15;;;;;;;6.17;1.80;;;;;;;28.27;38.20;100829.17;1736887;81;21429;-60
2021/06/18 05:32:45;;;;;;;4.55;1.90;;;;;;;28.39;38.61;100827.72;1735129;81;20998;-64
2021/06/18 05:35:12;;;;;;;6.03;2.15;;;;;;;28.59;37.84;100825.33;1736260;81;20939;-66
2021/06/18 05:37:39;;;;;;;4.28;1.82;;;;;;;28.64;37.06;100823.76;1747464;81;21551;-69
2021/06/18 05:40:09;;;;;;;4.12;1.65;;;;;;;28.58;37.15;100825.83;1744318;81;21160;-69
2021/06/18 05:42:37;;;;;;;1.67;1.57;;;;;;;28.58;37.58;100821.81;1727487;81;20978;-66
2021/06/18 05:45:06;;;;;;;3.00;1.60;;;;;;;28.77;37.37;100823.95;1753506;81;20911;-74
2021/06/18 05:47:33;;;;;;;3.25;1.90;;;;;;;28.90;36.52;100822.48;1737829;81;20997;-71
2021/06/18 05:50:01;;;;;;;3.77;1.60;;;;;;;28.88;36.09;100828.02;1736903;81;21436;-73
2021/06/18 05:52:28;;;;;;;3.15;1.57;;;;;;;28.76;36.58;100828.98;1737077;81;21149;-65
2021/06/18 05:54:55;;;;;;;5.72;2.22;;;;;;;28.72;36.43;100827.70;1755934;81;20887;-62
2021/06/18 05:57:23;;;;;;;2.55;1.80;;;;;;;28.64;36.76;100824.27;1737881;81;20943;-62
2021/06/18 05:59:50;;;;;;;3.45;2.00;;;;;;;28.64;36.97;100820.25;1728125;82;20972;-63
2021/06/18 06:02:18;;;;;;;3.83;1.90;;;;;;;28.72;37.18;100818.82;1722139;81;20911;-66
2021/06/18 06:04:46;;;;;;;5.30;2.15;;;;;;;28.92;36.80;100823.95;1738287;81;21150;-64
2021/06/18 06:07:13;;;;;;;2.67;1.85;;;;;;;29.13;36.69;100832.59;1733160;82;21040;-66
2021/06/18 06:09:40;;;;;;;2.98;1.92;;;;;;;29.27;36.30;100836.25;1728631;81;20959;-64
2021/06/18 06:12:08;;;;;;;3.67;2.22;;;;;;;29.28;36.13;100825.84;1740688;82;20952;-61
2021/06/18 06:14:36;;;;;;;4.33;2.15;;;;;;;29.24;36.66;100837.95;1727725;82;20955;-63
2021/06/18 06:17:06;;;;;;;5.33;2.42;;;;;;;29.22;36.56;100835.47;1733206;82;21501;-67
2021/06/18 06:19:33;;;;;;;4.30;1.92;;;;;;;29.21;36.13;100837.83;1737292;81;20955;-73
2021/06/18 06:22:00;;;;;;;2.35;2.10;;;;;;;29.21;36.88;100837.83;1725905;82;20926;-63
2021/06/18 06:24:28;;;;;;;2.87;1.82;;;;;;;29.29;37.04;100832.87;1737094;82;20891;-62
2021/06/18 06:26:55;;;;;;;9.03;1.77;;;;;;;29.36;36.63;100833.27;1722696;81;21072;-63
2021/06/18 06:29:22;;;;;;;3.27;1.77;;;;;;;29.35;36.21;100833.45;1731616;82;21207;-62
2021/06/18 06:31:50;;;;;;;2.12;1.60;;;;;;;29.27;36.43;100827.69;1731772;82;20996;-61
2021/06/18 06:34:17;;;;;;;3.72;1.80;;;;;;;29.20;36.63;100830.80;1738157;82;20892;-69
2021/06/18 06:36:44;;;;;;;4.10;1.60;;;;;;;29.16;36.65;100838.41;1730933;82;20951;-65
2021/06/18 06:39:12;;;;;;;2.42;1.52;;;;;;;29.05;35.72;100830.01;1730605;82;20950;-61
2021/06/18 06:41:39;;;;;;;5.90;1.70;;;;;;;28.94;36.94;100825.95;1724416;82;21136;-64
2021/06/18 06:44:06;;;;;;;8.83;2.12;;;;;;;28.95;37.54;100826.27;1726172;82;21022;-63
2021/06/18 06:46:33;;;;;;;1.85;1.52;;;;;;;29.14;36.94;100824.36;1726548;82;20962;-59
2021/06/18 06:49:00;;;;;;;5.50;1.45;;;;;;;29.27;35.80;100819.64;1732605;82;21002;-64
2021/06/18 06:51:28;;;;;;;3.47;2.02;;;;;;;29.26;36.24;100825.19;1729431;82;21517;-77
2021/06/18 06:53:55;;;;;;;5.55;2.10;;;;;;;29.33;35.56;100818.89;1725642;82;21154;-60
2021/06/18 06:56:22;;;;;;;4.95;2.00;;;;;;;29.39;35.66;100823.50;1733536;82;21473;-72
2021/06/18 06:58:51;;;;;;;3.55;1.75;;;;;;;29.33;35.79;100829.63;1714566;82;20991;-66
2021/06/18 07:01:19;;;;;;;5.78;2.22;;;;;;;29.14;35.52;100830.23;1718553;82;21525;-70
2021/06/18 07:03:46;;;;;;;5.60;2.00;;;;;;;28.94;36.43;100832.64;1708366;82;20943;-66
2021/06/18 07:06:14;;;;;;;5.50;2.50;;;;;;;28.94;35.86;100844.71;1752636;81;21958;-62
2021/06/18 07:08:41;;;;;;;5.00;1.75;;;;;;;28.94;36.86;100839.34;1787426;80;20937;-70
2021/06/18 07:11:09;;;;;;;3.33;1.60;;;;;;;29.08;35.82;100837.68;1783684;80;21020;-65
2021/06/18 07:13:36;;;;;;;4.05;1.85;;;;;;;28.99;35.73;100843.66;1782596;80;21018;-61
2021/06/18 07:16:04;;;;;;;3.33;1.42;;;;;;;28.80;36.49;100849.02;1786450;80;20902;-69
2021/06/18 07:18:35;;;;;;;5.03;2.00;;;;;;;28.69;36.47;100845.48;1777801;80;21139;-72
2021/06/18 07:21:03;;;;;;;4.05;1.60;;;;;;;28.74;36.64;100831.02;1763223;80;20974;-61
2021/06/18 07:23:30;;;;;;;3.58;1.50;;;;;;;28.89;36.86;100841.75;1787050;80;20902;-63
2021/06/18 07:25:58;;;;;;;3.08;1.60;;;;;;;28.92;36.63;100829.32;1788054;80;20949;-62
2021/06/18 07:28:27;;;;;;;4.62;1.60;;;;;;;28.93;36.35;100830.15;1768890;80;20930;-68
2021/06/18 07:30:54;;;;;;;4.00;1.65;;;;;;;28.88;36.49;100853.49;1781223;80;21144;-65
2021/06/18 07:33:21;;;;;;;2.92;1.35;;;;;;;28.83;36.51;100831.26;1769060;80;20906;-63
2021/06/18 07:35:49;;;;;;;6.62;1.80;;;;;;;28.83;36.58;100840.64;1779956;80;21419;-68
2021/06/18 07:38:16;;;;;;;4.97;1.87;;;;;;;28.87;37.01;100855.34;1775599;80;21056;-66
2021/06/18 07:40:44;;;;;;;4.15;1.77;;;;;;;28.93;36.39;100840.87;1788697;80;20939;-63
2021/06/18 07:43:12;;;;;;;1.50;1.37;;;;;;;28.84;36.65;100838.28;1787953;80;21095;-78
2021/06/18 07:45:42;;;;;;;3.95;1.50;;;;;;;28.78;36.32;100855.11;1788200;80;21526;-71
2021/06/18 07:48:10;;;;;;;7.15;2.02;;;;;;;28.53;36.88;100841.12;1786020;80;20970;-63
2021/06/18 07:50:38;;;;;;;6.75;2.33;;;;;;;28.48;37.65;100834.13;1788048;80;20961;-66
2021/06/18 07:53:06;;;;;;;5.60;1.90;;;;;;;28.43;37.58;100837.86;1787022;80;20989;-75
2021/06/18 07:55:34;;;;;;;8.45;2.00;;;;;;;28.41;38.01;100829.17;1785044;80;21002;-75
2021/06/18 07:58:02;;;;;;;6.08;1.70;;;;;;;28.47;37.23;100835.66;1793205;79;20946;-67
2021/06/18 08:00:29;;;;;;;7.30;2.27;;;;;;;28.52;36.27;100846.66;1782405;79;20946;-75
2021/06/18 08:02:56;;;;;;;2.55;1.72;;;;;;;28.59;36.45;100843.58;1784561;79;20994;-69
2021/06/18 08:05:23;;;;;;;3.22;1.50;;;;;;;28.61;36.77;100836.69;1802027;79;20991;-68
2021/06/18 08:07:52;;;;;;;6.17;2.25;;;;;;;28.54;36.76;100847.31;1786050;78;21035;-69
2021/06/18 08:10:22;;;;;;;11.60;2.37;;;;;;;28.49;37.26;100841.16;1782110;79;21051;-70
2021/06/18 08:12:49;;;;;;;19.12;2.92;;;;;;;28.44;37.32;100831.48;1789714;79;21010;-69
2021/06/18 08:15:16;;;;;;;4.12;1.72;;;;;;;28.32;37.28;100832.14;1790617;78;21512;-61
2021/06/18 08:17:43;;;;;;;5.45;1.50;;;;;;;28.24;36.95;100842.41;1792842;78;20879;-66
2021/06/18 08:20:12;;;;;;;3.00;1.57;;;;;;;28.19;37.11;100848.28;1781613;79;21054;-66
2021/06/18 08:22:39;;;;;;;4.08;1.62;;;;;;;28.16;37.59;100839.27;1790096;78;21524;-71
2021/06/18 08:25:07;;;;;;;7.15;1.90;;;;;;;28.19;37.70;100834.89;1791391;78;20867;-71
2021/06/18 08:27:35;;;;;;;6.08;1.80;;;;;;;28.27;37.13;100859.47;1791534;79;21033;-71
2021/06/18 08:30:03;;;;;;;3.77;2.08;;;;;;;28.33;37.44;100836.48;1790418;79;21060;-69
2021/06/18 08:32:30;;;;;;;3.05;1.82;;;;;;;28.33;37.60;100839.16;1736269;81;21121;-71
2021/06/18 08:34:57;;;;;;;5.45;2.20;;;;;;;28.18;37.68;100835.91;1748462;80;20958;-68
2021/06/18 08:37:24;;;;;;;6.05;1.87;;;;;;;28.15;37.91;100837.60;1736713;82;20849;-64
2021/06/18 08:39:53;;;;;;;4.22;1.37;;;;;;;28.18;37.63;100843.94;1800238;78;20859;-77
2021/06/18 08:42:20;;;;;;;12.18;2.05;;;;;;;28.16;38.17;100851.83;1783550;78;20938;-81
2021/06/18 08:44:47;;;;;;;4.62;1.70;;;;;;;28.09;37.93;100838.83;1785581;79;21178;-66
2021/06/18 08:47:16;;;;;;;4.00;1.60;;;;;;;28.03;37.81;100839.03;1781312;79;20958;-67
2021/06/18 08:49:43;;;;;;;4.42;1.70;;;;;;;27.94;37.49;100839.30;1790382;79;20932;-73
2021/06/18 08:52:11;;;;;;;5.72;1.87;;;;;;;27.82;38.01;100831.69;1793317;79;20985;-62
2021/06/18 08:54:43;;;;;;;3.52;1.45;;;;;;;27.71;38.38;100844.64;1789974;79;21568;-70
2021/06/18 08:57:15;;;;;;;3.70;1.27;;;;;;;27.64;39.02;100836.98;1789834;78;21780;-64
2021/06/18 08:59:42;;;;;;;2.83;1.72;;;;;;;27.71;39.29;100854.84;1789980;79;20975;-76
2021/06/18 09:02:10;;;;;;;6.33;1.70;;;;;;;27.72;39.30;100839.62;1793905;79;20966;-68
2021/06/18 09:05:02;;;;;;;4.42;1.40;;;;;;;27.66;38.98;100849.19;1786286;79;20986;-71
2021/06/18 09:07:30;;;;;;;3.22;1.35;;;;;;;27.64;38.19;100841.00;1718647;82;20998;-69
2021/06/18 09:09:57;;;;;;;3.83;1.45;;;;;;;27.52;39.03;100845.41;1724513;82;21401;-72
2021/06/18 09:12:24;;;;;;;3.58;1.77;;;;;;;27.41;39.64;100846.30;1738064;82;20895;-73
2021/06/18 09:14:53;;;;;;;2.17;1.45;;;;;;;27.33;39.72;100859.21;1781892;79;20931;-72
2021/06/18 09:17:24;;;;;;;9.08;1.57;;;;;;;27.26;39.59;100849.38;1782199;79;21465;-69
2021/06/18 09:19:55;;;;;;;3.40;1.72;;;;;;;27.13;39.45;100844.11;1781976;80;20887;-66
2021/06/18 09:22:40;;;;;;;14.75;1.95;;;;;;;26.97;39.56;100848.68;1782199;79;21029;-78
2021/06/18 09:25:13;;;;;;;10.93;1.82;;;;;;;26.89;40.21;100852.17;1782300;79;20970;-75
2021/06/18 09:27:44;;;;;;;12.60;1.60;;;;;;;26.86;40.00;100849.84;1786316;79;21448;-70
2021/06/18 09:30:30;;;;;;;3.80;1.90;;;;;;;26.81;40.59;100846.84;1781951;79;20930;-71
2021/06/18 09:33:25;;;;;;;4.33;1.52;;;;;;;26.84;40.54;100853.19;1801950;79;20922;-60
2021/06/18 09:36:08;;;;;;;6.20;1.90;;;;;;;26.87;40.71;100852.34;1813614;79;20930;-62
2021/06/18 09:38:54;;;;;;;2.90;1.45;;;;;;;26.77;41.18;100865.59;1814470;79;20910;-75
2021/06/18 09:41:40;;;;;;;3.17;1.52;;;;;;;26.67;41.40;100846.23;1814132;79;21508;-61
2021/06/18 09:44:17;;;;;;;9.30;1.72;;;;;;;26.65;41.80;100848.25;1791440;79;20993;-73
2021/06/18 09:46:53;;;;;;;2.17;1.70;;;;;;;26.63;41.80;100847.58;1787266;79;20938;-72
2021/06/18 09:49:39;;;;;;;3.40;1.47;;;;;;;26.62;42.46;100848.59;1776295;79;21194;-75
2021/06/18 09:52:15;;;;;;;2.85;1.37;;;;;;;26.57;42.13;100849.09;1781029;80;20945;-63
2021/06/18 09:54:45;;;;;;;1.70;1.60;;;;;;;26.52;42.49;100836.75;1781194;79;20951;-67
2021/06/18 09:57:18;;;;;;;2.42;1.55;;;;;;;26.49;42.60;100857.11;1780920;79;21500;-66
2021/06/18 09:59:59;;;;;;;6.22;1.90;;;;;;;26.41;42.89;100839.26;1773215;80;21505;-66
2021/06/18 10:02:48;;;;;;;5.78;1.92;;;;;;;26.37;43.36;100835.79;1770498;80;21701;-62
2021/06/18 10:05:27;;;;;;;4.12;1.60;;;;;;;26.37;44.13;100832.62;1772482;81;21428;-60
2021/06/18 10:07:56;;;;;;;1.70;1.60;;;;;;;26.40;42.78;100836.25;1772332;80;20970;-60
2021/06/18 10:10:31;;;;;;;1.90;1.27;;;;;;;26.42;43.33;100833.41;1772127;81;20989;-61
2021/06/18 10:13:00;;;;;;;2.15;1.37;;;;;;;26.42;43.41;100831.58;1778281;79;21040;-67
2021/06/18 10:15:30;;;;;;;5.40;2.02;;;;;;;26.43;43.26;100837.75;1775034;79;21347;-60
2021/06/18 10:17:58;;;;;;;4.92;1.70;;;;;;;26.41;43.78;100835.25;1697379;83;20909;-65
2021/06/18 10:20:28;;;;;;;1.80;1.60;;;;;;;26.39;43.32;100827.91;1779595;79;21469;-63
2021/06/18 10:23:12;;;;;;;3.00;1.77;;;;;;;26.35;42.99;100829.28;1785106;79;20936;-81
2021/06/18 10:26:04;;;;;;;3.37;1.50;;;;;;;26.34;42.77;100816.93;1701601;83;21004;-73
2021/06/18 10:28:33;;;;;;;4.78;2.17;;;;;;;26.37;43.37;100824.61;1784917;79;21966;-73
2021/06/18 10:31:06;;;;;;;5.22;1.67;;;;;;;26.46;43.94;100828.91;1785075;79;20974;-71
2021/06/18 10:33:39;;;;;;;3.75;1.42;;;;;;;26.55;42.28;100824.38;1781363;79;20911;-82
2021/06/18 10:36:11;;;;;;;2.05;1.87;;;;;;;26.57;42.24;100821.05;1787817;79;20943;-68
2021/06/18 10:38:44;;;;;;;5.50;1.62;;;;;;;26.58;42.15;100822.71;1779746;79;20939;-75
2021/06/18 10:41:19;;;;;;;2.90;1.75;;;;;;;26.57;42.05;100813.86;1698899;83;21539;-67
2021/06/18 10:43:50;;;;;;;2.55;1.60;;;;;;;26.57;42.77;100813.86;1782090;79;20900;-61
2021/06/18 10:46:30;;;;;;;2.37;1.57;;;;;;;26.61;42.57;100810.35;1780919;79;20994;-62
2021/06/18 10:49:14;;;;;;;2.75;1.50;;;;;;;26.64;42.96;100814.02;1771706;80;21036;-63
2021/06/18 10:51:50;;;;;;;4.87;2.00;;;;;;;26.60;42.06;100811.36;1778513;79;21087;-60
2021/06/18 10:54:33;;;;;;;12.30;2.05;;;;;;;26.52;43.10;100785.49;1707311;83;21211;-67
2021/06/18 10:57:22;;;;;;;4.12;2.00;;;;;;;26.48;43.68;100804.20;1702995;83;21039;-71
2021/06/18 10:59:52;;;;;;;3.77;2.00;;;;;;;26.56;43.16;100810.86;1777332;79;21552;-62
2021/06/18 11:02:30;;;;;;;3.12;1.80;;;;;;;26.61;43.00;100817.03;1791647;78;21013;-64
2021/06/18 11:05:31;;;;;;;3.62;1.67;;;;;;;26.63;42.29;100808.84;1797295;78;20879;-68
2021/06/18 11:08:19;;;;;;;4.72;1.57;;;;;;;26.60;42.72;100806.52;1763573;80;21010;-69
2021/06/18 11:10:46;;;;;;;5.00;2.17;;;;;;;26.58;42.98;100798.17;1802367;78;21052;-63
2021/06/18 11:13:17;;;;;;;3.33;1.80;;;;;;;26.60;43.12;100811.86;1803494;78;21485;-73
2021/06/18 11:15:47;;;;;;;4.28;1.90;;;;;;;26.58;42.85;100802.17;1793900;78;21205;-68
2021/06/18 11:18:21;;;;;;;1.70;1.60;;;;;;;26.59;43.06;100801.67;1792203;78;21009;-68
2021/06/18 11:20:50;;;;;;;;;;;;;;;26.61;42.91;100807.68;1800366;78;21928;-74
2021/06/18 11:23:23;;;;;;;6.10;1.77;;;;;;;26.61;42.43;100806.84;1790996;78;20144;-60
2021/06/18 11:25:54;;;;;;;1.67;1.47;;;;;;;26.54;42.42;100799.52;1790478;78;20998;-74
2021/06/18 11:28:27;;;;;;;6.40;2.00;;;;;;;26.51;43.10;100791.00;1788887;78;20989;-69
2021/06/18 11:31:21;;;;;;;3.27;1.62;;;;;;;26.49;43.38;100799.19;1794217;78;20966;-67
2021/06/18 11:33:57;;;;;;;3.42;1.55;;;;;;;26.55;42.41;100809.70;1790690;78;21965;-73
2021/06/18 11:36:40;;;;;;;2.27;1.37;;;;;;;26.57;41.79;100805.85;1807290;78;20868;-74
2021/06/18 11:39:13;;;;;;;3.70;1.60;;;;;;;26.55;42.17;100807.86;1722279;81;21365;-73
2021/06/18 11:41:44;;;;;;;1.60;1.17;;;;;;;26.54;41.38;100798.68;1787615;78;20935;-60
2021/06/18 11:44:13;;;;;;;1.50;1.40;;;;;;;26.55;42.08;100807.02;1787917;79;20981;-64
2021/06/18 11:46:42;;;;;;;14.80;2.20;;;;;;;26.59;41.83;100793.66;1792470;78;21128;-72
2021/06/18 11:49:18;;;;;;;3.60;1.72;;;;;;;26.63;41.95;100791.48;1791904;78;20997;-74
2021/06/18 11:51:45;;;;;;;2.58;1.30;;;;;;;26.66;41.62;100797.31;1790849;78;21563;-67
2021/06/18 11:54:32;;;;;;;1.47;1.20;;;;;;;26.68;39.09;100797.14;1794456;78;21044;-73
2021/06/18 11:57:19;;;;;;;2.85;1.40;;;;;;;26.68;39.19;100779.78;1739299;82;21054;-74
2021/06/18 11:59:58;;;;;;;3.15;1.52;;;;;;;26.70;39.55;100785.28;1737412;82;22000;-79
2021/06/18 12:02:32;;;;;;;7.05;2.10;;;;;;;26.75;39.62;100784.77;1742429;80;21430;-60
2021/06/18 12:05:11;;;;;;;2.83;1.70;;;;;;;26.79;39.70;100778.88;1719617;81;21036;-77
2021/06/18 12:07:38;;;;;;;4.28;1.35;;;;;;;26.80;40.12;100781.88;1741212;82;20863;-78
2021/06/18 12:10:07;;;;;;;5.87;1.70;;;;;;;26.79;39.54;100775.41;1767264;80;20986;-68
2021/06/18 12:12:46;;;;;;;3.37;1.52;;;;;;;26.78;39.26;100785.77;1741818;82;21037;-77
2021/06/18 12:15:27;;;;;;;1.75;1.32;;;;;;;26.75;39.57;100773.58;1743680;82;20910;-74
2021/06/18 12:18:03;;;;;;;5.12;1.60;;;;;;;26.74;40.54;100775.92;1753635;80;20936;-76
2021/06/18 12:20:43;;;;;;;1.82;1.45;;;;;;;26.75;41.46;100771.41;1744422;82;21017;-67
2021/06/18 12:23:17;;;;;;;4.20;1.55;;;;;;;26.77;41.64;100767.56;1744912;80;20947;-67
2021/06/18 12:25:46;;;;;;;2.55;1.70;;;;;;;26.81;40.97;100764.01;1759878;80;21184;-74
2021/06/18 12:28:17;;;;;;;4.47;1.57;;;;;;;26.82;40.71;100769.69;1713898;82;22100;-71
2021/06/18 12:30:44;;;;;;;4.85;1.80;;;;;;;26.80;39.69;100770.36;1736612;82;21006;-72
2021/06/18 12:33:12;;;;;;;4.70;1.70;;;;;;;26.78;40.66;100771.90;1726378;82;21954;-72
2021/06/18 12:35:43;;;;;;;2.72;1.87;;;;;;;26.78;39.83;100773.23;1710738;82;21381;-72
2021/06/18 12:38:15;;;;;;;11.40;1.90;;;;;;;26.80;39.93;100777.88;1728512;82;21801;-68
2021/06/18 12:40:48;;;;;;;2.50;1.42;;;;;;;26.83;39.61;100775.36;1751748;80;20911;-72
2021/06/18 12:43:17;;;;;;;3.92;1.50;;;;;;;26.81;40.26;100775.53;1797556;79;20868;-69
2021/06/18 12:45:49;;;;;;;1.40;1.30;;;;;;;26.82;38.89;100779.87;1801112;79;20948;-64
2021/06/18 12:48:22;;;;;;;1.67;1.55;;;;;;;26.81;39.19;100779.54;1792311;79;20911;-64
2021/06/18 12:51:00;;;;;;;1.42;1.32;;;;;;;26.80;38.53;100782.38;1782402;80;21076;-66
2021/06/18 12:53:41;;;;;;;5.08;1.42;;;;;;;26.79;37.95;100790.91;1782005;80;20891;-66
2021/06/18 12:56:19;;;;;;;7.12;1.50;;;;;;;26.78;38.48;100785.26;1781924;80;21013;-65
2021/06/18 12:58:50;;;;;;;3.35;1.50;;;;;;;26.78;39.54;100775.91;1782246;79;21461;-63
2021/06/18 13:01:28;;;;;;;3.65;1.40;;;;;;;26.79;39.55;100782.09;1744194;82;20896;-64
2021/06/18 13:03:54;;;;;;;3.77;1.55;;;;;;;26.78;39.40;100804.47;1735557;82;21146;-73
2021/06/18 13:06:24;;;;;;;6.03;1.80;;;;;;;26.75;40.16;100786.11;1736301;82;21613;-67
2021/06/18 13:09:00;;;;;;;3.37;1.40;;;;;;;26.75;39.64;100791.45;1736302;82;20959;-75
2021/06/18 13:11:33;;;;;;;2.60;1.20;;;;;;;26.75;39.90;100783.44;1736351;82;21012;-64
2021/06/18 13:14:21;;;;;;;2.40;1.52;;;;;;;26.75;39.89;100794.13;1736534;82;20948;-70
2021/06/18 13:17:02;;;;;;;3.72;1.32;;;;;;;26.73;39.81;100784.11;1736123;82;21518;-75
2021/06/18 13:19:50;;;;;;;3.15;1.00;;;;;;;26.69;40.31;100786.28;1735788;82;21610;-72
2021/06/18 13:22:26;;;;;;;3.67;1.35;;;;;;;26.69;39.85;100783.62;1748340;80;21037;-77
2021/06/18 13:25:04;;;;;;;5.45;1.57;;;;;;;26.72;40.24;100786.45;1737161;82;21041;-72
2021/06/18 13:27:31;;;;;;;2.62;1.57;;;;;;;26.74;39.76;100788.45;1707564;82;21508;-67
2021/06/18 13:30:03;;;;;;;1.95;1.45;;;;;;;26.76;39.93;100785.10;1724509;82;21954;-72
2021/06/18 13:32:44;;;;;;;2.77;1.32;;;;;;;26.78;40.64;100801.30;1741352;81;20940;-68
2021/06/18 13:35:13;;;;;;;1.37;1.27;;;;;;;26.78;40.49;100791.94;1707444;82;20951;-70
2021/06/18 13:37:42;;;;;;;6.75;1.42;;;;;;;26.78;40.51;100796.45;1726582;82;21021;-68
2021/06/18 13:40:34;;;;;;;5.05;1.67;;;;;;;26.78;39.78;100787.09;1756282;80;20867;-65
2021/06/18 13:43:01;;;;;;;8.38;1.52;;;;;;;26.76;40.24;100783.77;1738195;82;21846;-70
2021/06/18 13:45:28;;;;;;;5.08;1.50;;;;;;;26.76;39.48;100797.13;1733037;80;21493;-68
2021/06/18 13:47:59;;;;;;;2.35;1.60;;;;;;;26.73;39.71;100780.09;1759856;80;22127;-68
2021/06/18 13:50:28;;;;;;;5.33;1.45;;;;;;;26.73;40.49;100786.78;1728843;81;20998;-64
2021/06/18 13:52:55;;;;;;;2.05;1.47;;;;;;;26.76;40.79;100793.12;1733564;81;21027;-77
2021/06/18 13:55:22;;;;;;;7.30;1.50;;;;;;;26.77;39.83;100780.92;1731389;81;21004;-81
2021/06/18 13:57:49;;;;;;;5.72;1.70;;;;;;;26.76;39.60;100789.11;1729364;81;21777;-70
2021/06/18 14:00:17;;;;;;;1.25;1.17;;;;;;;26.72;40.46;100781.94;1731850;81;21587;-65
2021/06/18 14:02:44;;;;;;;5.58;1.60;;;;;;;26.72;40.54;100779.77;1707934;83;20919;-77
